sensor_id;sensor_type;location;lat;lon;timestamp;pressure;altitude;pressure_sealevel;temperature;humidity
76853;BME280;65825;52.232;10.566;2023-01-08T00:01:41;99793.22;;;9.69;65.79
76853;BME280;65825;52.232;10.566;2023-01-08T00:04:06;99792.94;;;9.75;65.70
76853;BME280;65825;52.232;10.566;2023-01-08T00:06:31;99781.38;;;9.79;65.55
76853;BME280;65825;52.232;10.566;2023-01-08T00:08:57;99782.16;;;9.81;65.73
76853;BME280;65825;52.232;10.566;2023-01-08T00:11:22;99785.66;;;9.81;65.70
76853;BME280;65825;52.232;10.566;2023-01-08T00:13:47;99781.38;;;9.79;65.54
76853;BME280;65825;52.232;10.566;2023-01-08T00:16:15;99778.00;;;9.75;65.49
76853;BME280;65825;52.232;10.566;2023-01-08T00:18:41;99781.81;;;9.68;65.77
76853;BME280;65825;52.232;10.566;2023-01-08T00:21:06;99786.16;;;9.69;65.71
76853;BME280;65825;52.232;10.566;2023-01-08T00:23:32;99761.59;;;9.69;66.23
76853;BME280;65825;52.232;10.566;2023-01-08T00:26:05;99768.47;;;9.73;66.04
76853;BME280;65825;52.232;10.566;2023-01-08T00:28:31;99767.38;;;9.77;65.74
76853;BME280;65825;52.232;10.566;2023-01-08T00:30:57;99781.31;;;9.80;65.83
76853;BME280;65825;52.232;10.566;2023-01-08T00:33:23;99769.63;;;9.86;65.41
76853;BME280;65825;52.232;10.566;2023-01-08T00:35:48;99762.16;;;9.95;65.01
76853;BME280;65825;52.232;10.566;2023-01-08T00:38:13;99767.38;;;9.97;65.62
76853;BME280;65825;52.232;10.566;2023-01-08T00:40:39;99767.09;;;10.03;65.48
76853;BME280;65825;52.232;10.566;2023-01-08T00:43:05;99771.41;;;10.05;65.66
76853;BME280;65825;52.232;10.566;2023-01-08T00:45:31;99760.75;;;10.08;65.28
76853;BME280;65825;52.232;10.566;2023-01-08T00:47:56;99746.56;;;10.11;65.42
76853;BME280;65825;52.232;10.566;2023-01-08T00:50:22;99737.25;;;10.02;65.61
76853;BME280;65825;52.232;10.566;2023-01-08T00:52:47;99736.38;;;10.02;65.67
76853;BME280;65825;52.232;10.566;2023-01-08T00:55:12;99738.38;;;9.97;65.77
76853;BME280;65825;52.232;10.566;2023-01-08T00:57:38;99732.16;;;9.98;65.93
76853;BME280;65825;52.232;10.566;2023-01-08T01:00:05;99730.47;;;9.97;66.21
76853;BME280;65825;52.232;10.566;2023-01-08T01:02:31;99735.75;;;9.97;66.23
76853;BME280;65825;52.232;10.566;2023-01-08T01:04:56;99740.72;;;10.03;65.84
76853;BME280;65825;52.232;10.566;2023-01-08T01:07:21;99728.63;;;9.99;66.07
76853;BME280;65825;52.232;10.566;2023-01-08T01:09:49;99737.59;;;9.95;65.74
76853;BME280;65825;52.232;10.566;2023-01-08T01:12:14;99735.94;;;9.92;66.27
76853;BME280;65825;52.232;10.566;2023-01-08T01:14:39;99739.53;;;9.91;66.12
76853;BME280;65825;52.232;10.566;2023-01-08T01:17:05;99770.56;;;9.85;66.29
76853;BME280;65825;52.232;10.566;2023-01-08T01:19:30;99772.59;;;9.78;66.59
76853;BME280;65825;52.232;10.566;2023-01-08T01:21:55;99772.75;;;9.75;66.83
76853;BME280;65825;52.232;10.566;2023-01-08T01:24:20;99767.03;;;9.84;66.83
76853;BME280;65825;52.232;10.566;2023-01-08T01:26:49;99762.38;;;9.91;66.32
76853;BME280;65825;52.232;10.566;2023-01-08T01:29:14;99744.47;;;9.99;66.36
76853;BME280;65825;52.232;10.566;2023-01-08T01:31:39;99739.53;;;10.11;65.96
76853;BME280;65825;52.232;10.566;2023-01-08T01:34:05;99734.50;;;10.05;65.83
76853;BME280;65825;52.232;10.566;2023-01-08T01:36:30;99739.03;;;10.02;66.53
76853;BME280;65825;52.232;10.566;2023-01-08T01:38:56;99736.22;;;9.86;66.53
76853;BME280;65825;52.232;10.566;2023-01-08T01:41:30;99731.13;;;9.82;67.11
76853;BME280;65825;52.232;10.566;2023-01-08T01:44:32;99713.56;;;9.82;66.84
76853;BME280;65825;52.232;10.566;2023-01-08T01:46:46;99724.09;;;9.82;66.81
76853;BME280;65825;52.232;10.566;2023-01-08T01:49:13;99713.50;;;9.84;66.87
76853;BME280;65825;52.232;10.566;2023-01-08T01:51:44;99730.09;;;9.86;66.90
76853;BME280;65825;52.232;10.566;2023-01-08T01:54:12;99711.56;;;9.87;66.87
76853;BME280;65825;52.232;10.566;2023-01-08T01:56:37;99709.88;;;9.86;66.82
76853;BME280;65825;52.232;10.566;2023-01-08T01:59:03;99719.34;;;9.90;66.86
76853;BME280;65825;52.232;10.566;2023-01-08T02:01:30;99719.09;;;9.96;66.27
76853;BME280;65825;52.232;10.566;2023-01-08T02:03:56;99705.97;;;9.95;66.73
76853;BME280;65825;52.232;10.566;2023-01-08T02:06:34;99711.09;;;9.98;66.69
76853;BME280;65825;52.232;10.566;2023-01-08T02:15:08;99702.66;;;9.90;66.96
76853;BME280;65825;52.232;10.566;2023-01-08T02:17:44;99698.59;;;9.83;67.54
76853;BME280;65825;52.232;10.566;2023-01-08T02:20:18;99695.03;;;9.84;67.41
76853;BME280;65825;52.232;10.566;2023-01-08T02:26:11;99700.81;;;9.92;66.84
76853;BME280;65825;52.232;10.566;2023-01-08T02:28:46;99698.19;;;9.92;67.21
76853;BME280;65825;52.232;10.566;2023-01-08T02:31:13;99690.25;;;9.92;67.00
76853;BME280;65825;52.232;10.566;2023-01-08T02:33:40;99694.63;;;9.93;67.22
76853;BME280;65825;52.232;10.566;2023-01-08T02:38:44;99706.03;;;9.93;67.05
76853;BME280;65825;52.232;10.566;2023-01-08T02:41:14;99704.38;;;9.91;67.66
76853;BME280;65825;52.232;10.566;2023-01-08T02:43:47;99704.75;;;10.02;66.88
76853;BME280;65825;52.232;10.566;2023-01-08T02:46:18;99705.75;;;9.99;67.25
76853;BME280;65825;52.232;10.566;2023-01-08T02:48:49;99703.09;;;9.99;67.44
76853;BME280;65825;52.232;10.566;2023-01-08T02:51:21;99702.13;;;10.02;67.30
76853;BME280;65825;52.232;10.566;2023-01-08T02:53:50;99687.91;;;10.06;67.10
76853;BME280;65825;52.232;10.566;2023-01-08T02:56:22;99682.81;;;10.01;67.22
76853;BME280;65825;52.232;10.566;2023-01-08T02:58:50;99683.41;;;10.08;67.10
76853;BME280;65825;52.232;10.566;2023-01-08T03:01:17;99679.78;;;10.10;67.19
76853;BME280;65825;52.232;10.566;2023-01-08T03:04:05;99688.44;;;10.14;67.56
76853;BME280;65825;52.232;10.566;2023-01-08T03:06:32;99687.69;;;10.10;66.86
76853;BME280;65825;52.232;10.566;2023-01-08T03:08:58;99693.91;;;10.09;67.51
76853;BME280;65825;52.232;10.566;2023-01-08T03:11:29;99696.19;;;10.17;66.92
76853;BME280;65825;52.232;10.566;2023-01-08T03:14:00;99694.25;;;10.20;67.04
76853;BME280;65825;52.232;10.566;2023-01-08T03:16:45;99695.00;;;10.24;67.06
76853;BME280;65825;52.232;10.566;2023-01-08T03:19:17;99696.72;;;10.25;67.23
76853;BME280;65825;52.232;10.566;2023-01-08T03:21:44;99698.00;;;10.16;67.39
76853;BME280;65825;52.232;10.566;2023-01-08T03:24:12;99692.38;;;10.24;67.28
76853;BME280;65825;52.232;10.566;2023-01-08T03:26:40;99679.78;;;10.29;67.13
76853;BME280;65825;52.232;10.566;2023-01-08T03:29:10;99680.53;;;10.32;66.88
76853;BME280;65825;52.232;10.566;2023-01-08T03:31:39;99681.53;;;10.30;67.02
76853;BME280;65825;52.232;10.566;2023-01-08T03:34:05;99674.38;;;10.32;67.36
76853;BME280;65825;52.232;10.566;2023-01-08T03:36:33;99687.63;;;10.30;67.04
76853;BME280;65825;52.232;10.566;2023-01-08T03:39:08;99678.94;;;10.28;67.17
76853;BME280;65825;52.232;10.566;2023-01-08T03:41:36;99688.63;;;10.28;67.52
76853;BME280;65825;52.232;10.566;2023-01-08T03:44:02;99694.72;;;10.30;67.30
76853;BME280;65825;52.232;10.566;2023-01-08T03:46:30;99696.84;;;10.40;67.12
76853;BME280;65825;52.232;10.566;2023-01-08T03:48:57;99696.00;;;10.40;67.27
76853;BME280;65825;52.232;10.566;2023-01-08T03:51:23;99697.53;;;10.44;67.52
76853;BME280;65825;52.232;10.566;2023-01-08T03:53:51;99694.00;;;10.45;67.20
76853;BME280;65825;52.232;10.566;2023-01-08T03:56:18;99688.63;;;10.46;67.30
76853;BME280;65825;52.232;10.566;2023-01-08T03:58:43;99674.72;;;10.43;67.17
76853;BME280;65825;52.232;10.566;2023-01-08T04:01:09;99671.97;;;10.46;67.02
76853;BME280;65825;52.232;10.566;2023-01-08T04:03:34;99680.38;;;10.35;67.87
76853;BME280;65825;52.232;10.566;2023-01-08T04:05:59;99672.16;;;10.41;67.96
76853;BME280;65825;52.232;10.566;2023-01-08T04:08:24;99670.47;;;10.40;67.61
76853;BME280;65825;52.232;10.566;2023-01-08T04:10:50;99670.38;;;10.42;68.13
76853;BME280;65825;52.232;10.566;2023-01-08T04:13:15;99664.75;;;10.49;67.72
76853;BME280;65825;52.232;10.566;2023-01-08T04:15:46;99658.19;;;10.39;68.35
76853;BME280;65825;52.232;10.566;2023-01-08T04:18:11;99641.59;;;10.37;68.33
76853;BME280;65825;52.232;10.566;2023-01-08T04:20:37;99653.22;;;10.33;68.94
76853;BME280;65825;52.232;10.566;2023-01-08T04:23:02;99642.25;;;10.24;68.75
76853;BME280;65825;52.232;10.566;2023-01-08T04:25:27;99635.94;;;10.26;69.35
76853;BME280;65825;52.232;10.566;2023-01-08T04:27:52;99627.19;;;10.26;69.12
76853;BME280;65825;52.232;10.566;2023-01-08T04:30:18;99624.69;;;10.23;69.13
76853;BME280;65825;52.232;10.566;2023-01-08T04:32:43;99611.66;;;10.20;69.78
76853;BME280;65825;52.232;10.566;2023-01-08T04:35:08;99615.22;;;10.19;69.81
76853;BME280;65825;52.232;10.566;2023-01-08T04:37:34;99618.63;;;10.21;69.51
76853;BME280;65825;52.232;10.566;2023-01-08T04:39:59;99616.06;;;10.19;69.78
76853;BME280;65825;52.232;10.566;2023-01-08T04:42:24;99606.69;;;10.14;70.23
76853;BME280;65825;52.232;10.566;2023-01-08T04:44:49;99618.06;;;10.14;69.88
76853;BME280;65825;52.232;10.566;2023-01-08T04:47:15;99617.22;;;10.14;70.04
76853;BME280;65825;52.232;10.566;2023-01-08T04:49:40;99613.50;;;10.18;70.00
76853;BME280;65825;52.232;10.566;2023-01-08T04:52:05;99609.78;;;10.22;69.79
76853;BME280;65825;52.232;10.566;2023-01-08T04:54:31;99600.19;;;10.21;69.88
76853;BME280;65825;52.232;10.566;2023-01-08T04:56:56;99596.91;;;10.16;70.50
76853;BME280;65825;52.232;10.566;2023-01-08T04:59:21;99595.59;;;10.24;70.24
76853;BME280;65825;52.232;10.566;2023-01-08T05:01:47;99594.19;;;10.17;70.14
76853;BME280;65825;52.232;10.566;2023-01-08T05:04:12;99592.19;;;10.22;70.04
76853;BME280;65825;52.232;10.566;2023-01-08T05:06:37;99600.41;;;10.16;70.52
76853;BME280;65825;52.232;10.566;2023-01-08T05:09:03;99595.13;;;10.16;70.32
76853;BME280;65825;52.232;10.566;2023-01-08T05:11:28;99585.41;;;10.17;70.06
76853;BME280;65825;52.232;10.566;2023-01-08T05:13:54;99578.44;;;10.16;70.63
76853;BME280;65825;52.232;10.566;2023-01-08T05:16:20;99588.28;;;10.12;70.88
76853;BME280;65825;52.232;10.566;2023-01-08T05:18:46;99581.78;;;10.19;70.24
76853;BME280;65825;52.232;10.566;2023-01-08T05:21:11;99581.00;;;10.17;70.52
76853;BME280;65825;52.232;10.566;2023-01-08T05:23:37;99578.31;;;10.19;70.02
76853;BME280;65825;52.232;10.566;2023-01-08T05:26:04;99578.66;;;10.11;70.54
76853;BME280;65825;52.232;10.566;2023-01-08T05:28:30;99587.94;;;10.20;70.20
76853;BME280;65825;52.232;10.566;2023-01-08T05:30:56;99582.78;;;10.17;70.32
76853;BME280;65825;52.232;10.566;2023-01-08T05:33:21;99585.22;;;10.21;70.21
76853;BME280;65825;52.232;10.566;2023-01-08T05:35:47;99581.19;;;10.31;69.92
76853;BME280;65825;52.232;10.566;2023-01-08T05:38:12;99583.59;;;10.19;70.26
76853;BME280;65825;52.232;10.566;2023-01-08T05:40:37;99583.13;;;10.28;69.55
76853;BME280;65825;52.232;10.566;2023-01-08T05:43:02;99591.91;;;10.28;69.87
76853;BME280;65825;52.232;10.566;2023-01-08T05:45:30;99586.47;;;10.31;69.89
76853;BME280;65825;52.232;10.566;2023-01-08T05:47:55;99594.31;;;10.33;70.06
76853;BME280;65825;52.232;10.566;2023-01-08T05:50:20;99592.84;;;10.27;70.10
76853;BME280;65825;52.232;10.566;2023-01-08T05:52:45;99583.19;;;10.26;70.25
76853;BME280;65825;52.232;10.566;2023-01-08T05:55:11;99576.16;;;10.27;70.14
76853;BME280;65825;52.232;10.566;2023-01-08T05:57:36;99573.22;;;10.33;69.97
76853;BME280;65825;52.232;10.566;2023-01-08T06:00:04;99582.19;;;10.29;70.50
76853;BME280;65825;52.232;10.566;2023-01-08T06:02:29;99583.13;;;10.28;70.28
76853;BME280;65825;52.232;10.566;2023-01-08T06:04:55;99579.78;;;10.24;70.70
76853;BME280;65825;52.232;10.566;2023-01-08T06:07:20;99583.19;;;10.26;70.52
76853;BME280;65825;52.232;10.566;2023-01-08T06:09:45;99582.59;;;10.21;70.74
76853;BME280;65825;52.232;10.566;2023-01-08T06:12:10;99569.03;;;10.10;71.32
76853;BME280;65825;52.232;10.566;2023-01-08T06:14:36;99584.28;;;10.22;71.15
76853;BME280;65825;52.232;10.566;2023-01-08T06:17:01;99581.59;;;10.24;70.54
76853;BME280;65825;52.232;10.566;2023-01-08T06:19:26;99585.63;;;10.31;70.53
76853;BME280;65825;52.232;10.566;2023-01-08T06:21:51;99586.03;;;10.40;70.42
76853;BME280;65825;52.232;10.566;2023-01-08T06:24:16;99584.09;;;10.44;69.77
76853;BME280;65825;52.232;10.566;2023-01-08T06:26:42;99585.41;;;10.35;70.73
76853;BME280;65825;52.232;10.566;2023-01-08T06:29:07;99579.28;;;10.35;70.69
76853;BME280;65825;52.232;10.566;2023-01-08T06:31:33;99590.59;;;10.37;70.93
76853;BME280;65825;52.232;10.566;2023-01-08T06:33:58;99586.41;;;10.33;71.22
76853;BME280;65825;52.232;10.566;2023-01-08T06:36:24;99579.72;;;10.26;71.99
76853;BME280;65825;52.232;10.566;2023-01-08T06:38:49;99586.94;;;10.22;72.46
76853;BME280;65825;52.232;10.566;2023-01-08T06:41:14;99584.00;;;10.10;73.24
76853;BME280;65825;52.232;10.566;2023-01-08T06:43:39;99587.06;;;10.19;72.98
76853;BME280;65825;52.232;10.566;2023-01-08T06:46:06;99583.50;;;10.20;73.27
76853;BME280;65825;52.232;10.566;2023-01-08T06:48:32;99582.00;;;10.15;73.40
76853;BME280;65825;52.232;10.566;2023-01-08T06:50:58;99585.41;;;10.17;73.84
76853;BME280;65825;52.232;10.566;2023-01-08T06:53:24;99584.78;;;10.12;74.07
76853;BME280;65825;52.232;10.566;2023-01-08T06:55:49;99574.41;;;10.09;74.61
76853;BME280;65825;52.232;10.566;2023-01-08T06:58:20;99581.13;;;9.96;75.22
76853;BME280;65825;52.232;10.566;2023-01-08T07:00:45;99573.84;;;10.01;75.16
76853;BME280;65825;52.232;10.566;2023-01-08T07:03:12;99583.75;;;9.96;75.62
76853;BME280;65825;52.232;10.566;2023-01-08T07:05:38;99577.34;;;10.01;75.97
76853;BME280;65825;52.232;10.566;2023-01-08T07:08:03;99584.53;;;9.98;76.02
76853;BME280;65825;52.232;10.566;2023-01-08T07:10:28;99586.56;;;9.93;76.46
76853;BME280;65825;52.232;10.566;2023-01-08T07:12:55;99578.56;;;9.94;76.48
76853;BME280;65825;52.232;10.566;2023-01-08T07:15:20;99587.31;;;9.95;76.22
76853;BME280;65825;52.232;10.566;2023-01-08T07:17:45;99579.78;;;9.87;76.68
76853;BME280;65825;52.232;10.566;2023-01-08T07:20:11;99584.97;;;9.89;76.19
76853;BME280;65825;52.232;10.566;2023-01-08T07:22:36;99581.41;;;9.90;76.73
76853;BME280;65825;52.232;10.566;2023-01-08T07:25:01;99576.44;;;9.84;77.07
76853;BME280;65825;52.232;10.566;2023-01-08T07:27:27;99575.72;;;9.80;77.28
76853;BME280;65825;52.232;10.566;2023-01-08T07:29:52;99586.97;;;9.84;77.42
76853;BME280;65825;52.232;10.566;2023-01-08T07:32:20;99581.25;;;9.74;78.03
76853;BME280;65825;52.232;10.566;2023-01-08T07:34:45;99586.97;;;9.65;78.54
76853;BME280;65825;52.232;10.566;2023-01-08T07:37:10;99592.66;;;9.75;78.33
76853;BME280;65825;52.232;10.566;2023-01-08T07:39:36;99597.06;;;9.74;78.70
76853;BME280;65825;52.232;10.566;2023-01-08T07:42:01;99596.06;;;9.77;78.64
76853;BME280;65825;52.232;10.566;2023-01-08T07:44:28;99595.28;;;9.75;79.20
76853;BME280;65825;52.232;10.566;2023-01-08T07:46:53;99596.00;;;9.78;78.84
76853;BME280;65825;52.232;10.566;2023-01-08T07:49:19;99600.72;;;9.90;78.40
76853;BME280;65825;52.232;10.566;2023-01-08T07:51:44;99599.00;;;9.89;78.62
76853;BME280;65825;52.232;10.566;2023-01-08T07:54:09;99601.72;;;9.88;79.18
76853;BME280;65825;52.232;10.566;2023-01-08T07:56:35;99603.78;;;9.81;79.82
76853;BME280;65825;52.232;10.566;2023-01-08T07:59:00;99602.13;;;9.79;79.93
76853;BME280;65825;52.232;10.566;2023-01-08T08:01:25;99603.19;;;9.75;80.39
76853;BME280;65825;52.232;10.566;2023-01-08T08:03:51;99600.78;;;9.70;80.92
76853;BME280;65825;52.232;10.566;2023-01-08T08:06:16;99601.97;;;9.63;81.57
76853;BME280;65825;52.232;10.566;2023-01-08T08:08:42;99601.78;;;9.68;81.50
76853;BME280;65825;52.232;10.566;2023-01-08T08:11:07;99598.00;;;9.73;81.54
76853;BME280;65825;52.232;10.566;2023-01-08T08:13:32;99597.34;;;9.68;81.55
76853;BME280;65825;52.232;10.566;2023-01-08T08:16:02;99593.06;;;9.66;82.08
76853;BME280;65825;52.232;10.566;2023-01-08T08:18:27;99589.88;;;9.59;82.90
76853;BME280;65825;52.232;10.566;2023-01-08T08:20:52;99593.28;;;9.61;83.07
76853;BME280;65825;52.232;10.566;2023-01-08T08:23:18;99591.88;;;9.73;81.97
76853;BME280;65825;52.232;10.566;2023-01-08T08:25:43;99594.22;;;9.60;83.31
76853;BME280;65825;52.232;10.566;2023-01-08T08:28:10;99592.94;;;9.69;82.92
76853;BME280;65825;52.232;10.566;2023-01-08T08:30:36;99597.94;;;9.75;82.07
76853;BME280;65825;52.232;10.566;2023-01-08T08:33:03;99600.09;;;9.85;81.81
76853;BME280;65825;52.232;10.566;2023-01-08T08:35:30;99595.22;;;9.76;82.39
76853;BME280;65825;52.232;10.566;2023-01-08T08:37:56;99593.66;;;9.72;82.43
76853;BME280;65825;52.232;10.566;2023-01-08T08:40:22;99592.06;;;9.68;83.59
76853;BME280;65825;52.232;10.566;2023-01-08T08:42:47;99602.13;;;9.79;82.47
76853;BME280;65825;52.232;10.566;2023-01-08T08:45:13;99589.97;;;9.76;82.98
76853;BME280;65825;52.232;10.566;2023-01-08T08:47:38;99595.88;;;9.81;82.60
76853;BME280;65825;52.232;10.566;2023-01-08T08:50:05;99592.03;;;9.88;82.43
76853;BME280;65825;52.232;10.566;2023-01-08T08:52:33;99588.16;;;9.95;82.26
76853;BME280;65825;52.232;10.566;2023-01-08T08:54:59;99589.41;;;10.07;81.79
76853;BME280;65825;52.232;10.566;2023-01-08T08:57:25;99579.22;;;10.18;81.08
76853;BME280;65825;52.232;10.566;2023-01-08T08:59:51;99574.88;;;10.17;81.36
76853;BME280;65825;52.232;10.566;2023-01-08T09:02:16;99578.66;;;10.11;82.29
76853;BME280;65825;52.232;10.566;2023-01-08T09:04:41;99574.88;;;10.17;81.41
76853;BME280;65825;52.232;10.566;2023-01-08T09:07:07;99585.41;;;10.17;81.92
76853;BME280;65825;52.232;10.566;2023-01-08T09:09:32;99574.84;;;10.35;80.29
76853;BME280;65825;52.232;10.566;2023-01-08T09:11:57;99568.31;;;10.25;80.74
76853;BME280;65825;52.232;10.566;2023-01-08T09:14:22;99560.88;;;10.33;80.26
76853;BME280;65825;52.232;10.566;2023-01-08T09:16:48;99548.97;;;10.43;79.63
76853;BME280;65825;52.232;10.566;2023-01-08T09:19:13;99562.16;;;10.43;79.85
76853;BME280;65825;52.232;10.566;2023-01-08T09:21:40;99561.59;;;10.37;79.94
76853;BME280;65825;52.232;10.566;2023-01-08T09:24:06;99560.06;;;10.50;79.47
76853;BME280;65825;52.232;10.566;2023-01-08T09:26:31;99550.91;;;10.57;79.26
76853;BME280;65825;52.232;10.566;2023-01-08T09:28:57;99545.72;;;10.55;78.67
76853;BME280;65825;52.232;10.566;2023-01-08T09:31:23;99559.09;;;10.69;79.11
76853;BME280;65825;52.232;10.566;2023-01-08T09:33:49;99567.63;;;10.91;78.63
76853;BME280;65825;52.232;10.566;2023-01-08T09:36:15;99567.78;;;10.88;78.03
76853;BME280;65825;52.232;10.566;2023-01-08T09:38:40;99570.03;;;10.96;77.71
76853;BME280;65825;52.232;10.566;2023-01-08T09:41:10;99569.31;;;10.92;78.06
76853;BME280;65825;52.232;10.566;2023-01-08T09:43:40;99581.75;;;10.90;77.69
76853;BME280;65825;52.232;10.566;2023-01-08T09:46:08;99567.69;;;10.90;78.14
76853;BME280;65825;52.232;10.566;2023-01-08T09:48:38;99569.41;;;10.91;77.77
76853;BME280;65825;52.232;10.566;2023-01-08T09:51:09;99565.97;;;11.06;76.77
76853;BME280;65825;52.232;10.566;2023-01-08T09:53:36;99555.56;;;11.20;76.83
76853;BME280;65825;52.232;10.566;2023-01-08T09:56:05;99556.19;;;11.25;76.50
76853;BME280;65825;52.232;10.566;2023-01-08T09:58:38;99549.41;;;11.36;76.12
76853;BME280;65825;52.232;10.566;2023-01-08T10:01:05;99548.13;;;11.28;76.16
76853;BME280;65825;52.232;10.566;2023-01-08T10:03:39;99557.38;;;11.02;77.03
76853;BME280;65825;52.232;10.566;2023-01-08T10:06:09;99548.00;;;10.97;77.10
76853;BME280;65825;52.232;10.566;2023-01-08T10:08:35;99550.84;;;10.75;78.06
76853;BME280;65825;52.232;10.566;2023-01-08T10:11:00;99545.50;;;10.77;78.61
76853;BME280;65825;52.232;10.566;2023-01-08T10:13:26;99545.88;;;10.86;77.73
76853;BME280;65825;52.232;10.566;2023-01-08T10:15:51;99543.94;;;10.73;78.72
76853;BME280;65825;52.232;10.566;2023-01-08T10:18:25;99530.22;;;10.83;77.78
76853;BME280;65825;52.232;10.566;2023-01-08T10:20:51;99523.22;;;11.32;76.31
76853;BME280;65825;52.232;10.566;2023-01-08T10:23:18;99516.09;;;11.66;74.89
76853;BME280;65825;52.232;10.566;2023-01-08T10:25:56;99522.47;;;11.62;74.93
76853;BME280;65825;52.232;10.566;2023-01-08T10:28:24;99527.13;;;11.25;74.17
76853;BME280;65825;52.232;10.566;2023-01-08T10:30:51;99538.34;;;10.79;76.06
76853;BME280;65825;52.232;10.566;2023-01-08T10:33:23;99526.09;;;10.61;76.87
76853;BME280;65825;52.232;10.566;2023-01-08T10:35:56;99515.91;;;10.53;77.27
76853;BME280;65825;52.232;10.566;2023-01-08T10:38:32;99531.81;;;10.69;77.66
76853;BME280;65825;52.232;10.566;2023-01-08T10:41:00;99547.03;;;10.64;77.25
76853;BME280;65825;52.232;10.566;2023-01-08T10:43:31;99548.59;;;10.68;76.88
76853;BME280;65825;52.232;10.566;2023-01-08T10:46:00;99543.75;;;10.59;77.91
76853;BME280;65825;52.232;10.566;2023-01-08T10:48:31;99544.56;;;10.61;77.47
76853;BME280;65825;52.232;10.566;2023-01-08T10:51:05;99552.25;;;10.65;77.24
76853;BME280;65825;52.232;10.566;2023-01-08T10:53:31;99544.56;;;10.61;78.17
76853;BME280;65825;52.232;10.566;2023-01-08T10:56:02;99534.91;;;10.60;77.76
76853;BME280;65825;52.232;10.566;2023-01-08T10:58:29;99532.00;;;10.66;76.97
76853;BME280;65825;52.232;10.566;2023-01-08T11:01:15;99528.19;;;10.71;77.29
76853;BME280;65825;52.232;10.566;2023-01-08T11:03:42;99528.41;;;10.67;76.54
76853;BME280;65825;52.232;10.566;2023-01-08T11:06:12;99525.91;;;10.64;76.41
76853;BME280;65825;52.232;10.566;2023-01-08T11:08:37;99526.63;;;10.67;76.69
76853;BME280;65825;52.232;10.566;2023-01-08T11:11:04;99519.41;;;10.71;77.62
76853;BME280;65825;52.232;10.566;2023-01-08T11:13:31;99508.69;;;10.74;75.57
76853;BME280;65825;52.232;10.566;2023-01-08T11:16:04;99507.84;;;10.73;76.83
76853;BME280;65825;52.232;10.566;2023-01-08T11:18:35;99497.59;;;10.84;76.65
76853;BME280;65825;52.232;10.566;2023-01-08T11:21:09;99505.50;;;10.84;75.34
76853;BME280;65825;52.232;10.566;2023-01-08T11:23:35;99497.28;;;10.73;76.33
76853;BME280;65825;52.232;10.566;2023-01-08T11:26:13;99496.81;;;10.82;75.43
76853;BME280;65825;52.232;10.566;2023-01-08T11:29:01;99494.16;;;10.99;74.70
76853;BME280;65825;52.232;10.566;2023-01-08T11:31:46;99488.69;;;11.02;74.18
76853;BME280;65825;52.232;10.566;2023-01-08T11:34:21;99482.25;;;11.08;73.25
76853;BME280;65825;52.232;10.566;2023-01-08T11:36:55;99487.81;;;11.19;73.55
76853;BME280;65825;52.232;10.566;2023-01-08T11:39:20;99477.38;;;11.33;72.49
76853;BME280;65825;52.232;10.566;2023-01-08T11:44:48;99464.88;;;11.04;72.82
76853;BME280;65825;52.232;10.566;2023-01-08T11:50:04;99455.78;;;11.09;72.74
76853;BME280;65825;52.232;10.566;2023-01-08T11:53:01;99442.97;;;11.02;72.61
76853;BME280;65825;52.232;10.566;2023-01-08T11:55:43;99448.63;;;11.11;72.67
76853;BME280;65825;52.232;10.566;2023-01-08T11:58:21;99438.50;;;11.35;71.19
76853;BME280;65825;52.232;10.566;2023-01-08T12:00:57;99430.59;;;11.50;71.00
76853;BME280;65825;52.232;10.566;2023-01-08T12:03:41;99429.09;;;11.62;71.28
76853;BME280;65825;52.232;10.566;2023-01-08T12:06:52;99423.66;;;11.65;69.94
76853;BME280;65825;52.232;10.566;2023-01-08T12:09:38;99409.50;;;11.66;70.04
76853;BME280;65825;52.232;10.566;2023-01-08T12:12:45;99412.13;;;11.66;70.65
76853;BME280;65825;52.232;10.566;2023-01-08T12:21:17;99405.75;;;11.70;70.38
76853;BME280;65825;52.232;10.566;2023-01-08T12:23:59;99406.25;;;11.61;70.26
76853;BME280;65825;52.232;10.566;2023-01-08T12:29:23;99404.16;;;11.50;70.69
76853;BME280;65825;52.232;10.566;2023-01-08T12:32:22;99403.06;;;11.54;70.96
76853;BME280;65825;52.232;10.566;2023-01-08T12:35:19;99400.34;;;11.56;70.23
76853;BME280;65825;52.232;10.566;2023-01-08T12:38:00;99393.25;;;11.41;70.71
76853;BME280;65825;52.232;10.566;2023-01-08T12:40:32;99390.25;;;11.47;69.88
76853;BME280;65825;52.232;10.566;2023-01-08T12:42:59;99386.13;;;11.43;69.77
76853;BME280;65825;52.232;10.566;2023-01-08T12:45:29;99375.69;;;11.40;69.95
76853;BME280;65825;52.232;10.566;2023-01-08T12:48:13;99382.34;;;11.47;69.96
76853;BME280;65825;52.232;10.566;2023-01-08T12:54:05;99358.47;;;11.48;69.76
76853;BME280;65825;52.232;10.566;2023-01-08T12:56:49;99354.22;;;11.46;69.45
76853;BME280;65825;52.232;10.566;2023-01-08T12:59:38;99364.19;;;11.56;69.55
76853;BME280;65825;52.232;10.566;2023-01-08T13:02:36;99354.53;;;11.55;69.00
76853;BME280;65825;52.232;10.566;2023-01-08T13:05:33;99350.63;;;12.07;66.78
76853;BME280;65825;52.232;10.566;2023-01-08T13:08:04;99344.16;;;14.18;60.47
76853;BME280;65825;52.232;10.566;2023-01-08T13:12:57;99334.03;;;18.26;46.92
76853;BME280;65825;52.232;10.566;2023-01-08T13:15:26;99334.47;;;19.53;43.72
76853;BME280;65825;52.232;10.566;2023-01-08T13:17:55;99327.94;;;21.44;39.06
76853;BME280;65825;52.232;10.566;2023-01-08T13:20:26;99322.34;;;18.07;45.55
76853;BME280;65825;52.232;10.566;2023-01-08T13:22:54;99329.16;;;16.13;50.94
76853;BME280;65825;52.232;10.566;2023-01-08T13:27:46;99323.88;;;13.66;59.52
76853;BME280;65825;52.232;10.566;2023-01-08T13:30:31;99325.03;;;14.13;59.47
76853;BME280;65825;52.232;10.566;2023-01-08T13:32:57;99315.69;;;13.69;60.57
76853;BME280;65825;52.232;10.566;2023-01-08T13:35:31;99309.44;;;13.43;60.87